Skip Navigation LinksHome page > Weather > Current weather Skip Navigation Links

Current Weather

Moundou, Chad

For information only: do not use for flight planning or navigation.
Latest weather
Observation time Thursday, May 26, 2016 4:00 PM WAT
Local time Thursday, May 26, 2016 9:15 PM WAT
Flight conditions Visual Meteorological Conditions
Winds
Wind direction North (360°)
Wind speed 7 mph
Visibility 6.2 mi.
Sky condition
Ceiling 25,000 ft. broken clouds
Cloud layer scattered clouds 4,000 ft.
Cloud layer broken clouds 25,000 ft.
Temperature 99°F
Dewpoint 70°F
Altimeter 29.80 in.Hg
Derived measurements
Relative humidity 40%
Heat index 99°F
Density altitude 3390 ft.
METAR FTTD 261500Z 36006KT 9999 SCT040 BKN250 37/21 Q1009

Settings

Location code

InnerDrive.Weather 4.0.5722.1 Release CLR 4.0.30319.34209
Copyright ©2015 Inner Drive Technology. All rights reserved. Portions Copyright ©1986-2015 David Braverman.

Find weather

Site navigation


Skip Navigation Links

Place info

Page info

PayPal - The safer, easier way to pay online!

Return home.

Copyright ©2016 Inner Drive Technology. Purveyors of fine, hand-crafted computer software. Page printed 2016-05-26T20:15:18 UTC.